createdAt,value
2023-05-05T00:00:43.246Z,9
2023-05-05T00:03:43.319Z,9
2023-05-05T00:06:43.227Z,9
2023-05-05T00:09:43.244Z,9
2023-05-05T00:12:43.250Z,9
2023-05-05T00:15:43.257Z,9
2023-05-05T00:18:43.241Z,8.9
2023-05-05T00:21:43.260Z,8.9
2023-05-05T00:24:43.276Z,8.8
2023-05-05T00:27:43.273Z,8.8
2023-05-05T00:30:43.281Z,8.7
2023-05-05T00:33:43.281Z,8.7
2023-05-05T00:36:43.295Z,8.6
2023-05-05T00:39:43.324Z,8.6
2023-05-05T00:42:43.327Z,8.5
2023-05-05T00:45:43.301Z,8.4
2023-05-05T00:48:43.322Z,8.4
2023-05-05T00:51:43.336Z,8.4
2023-05-05T00:54:43.355Z,8.4
2023-05-05T00:57:43.355Z,8.4
2023-05-05T01:00:43.376Z,8.3
2023-05-05T01:03:43.454Z,8.3
2023-05-05T01:06:43.375Z,8.3
2023-05-05T01:09:43.386Z,8.2
2023-05-05T01:12:43.368Z,8.2
2023-05-05T01:15:43.373Z,8.2
2023-05-05T01:18:43.376Z,8.2
2023-05-05T01:21:43.386Z,8.2
2023-05-05T01:24:43.382Z,8.2
2023-05-05T01:27:43.384Z,8.2
2023-05-05T01:30:43.375Z,8.2
2023-05-05T01:33:43.381Z,8.1
2023-05-05T01:36:43.379Z,8.1
2023-05-05T01:39:43.408Z,8
2023-05-05T01:42:43.381Z,8
2023-05-05T01:45:43.405Z,8
2023-05-05T01:48:43.392Z,7.9
2023-05-05T01:51:43.400Z,7.9
2023-05-05T01:54:43.400Z,7.8
2023-05-05T01:57:43.384Z,7.8
2023-05-05T02:00:43.393Z,7.8
2023-05-05T02:03:43.389Z,7.8
2023-05-05T02:06:43.391Z,7.7
2023-05-05T02:09:43.410Z,7.7
2023-05-05T02:12:43.423Z,7.7
2023-05-05T02:15:43.417Z,7.6
2023-05-05T02:18:43.413Z,7.6
2023-05-05T02:21:43.414Z,7.7
2023-05-05T02:24:43.416Z,7.7
2023-05-05T02:27:43.443Z,7.8
2023-05-05T02:30:43.418Z,7.8
2023-05-05T02:33:43.429Z,7.8
2023-05-05T02:36:43.417Z,7.9
2023-05-05T02:39:43.446Z,7.9
2023-05-05T02:42:43.433Z,7.9
2023-05-05T02:45:43.450Z,7.8
2023-05-05T02:48:43.430Z,7.8
2023-05-05T02:51:43.430Z,7.8
2023-05-05T02:54:43.443Z,7.7
2023-05-05T02:57:43.425Z,7.7
2023-05-05T03:00:43.451Z,7.7
2023-05-05T03:03:43.472Z,7.7
2023-05-05T03:06:43.451Z,7.7
2023-05-05T03:09:43.467Z,7.7
2023-05-05T03:12:43.478Z,7.7
2023-05-05T03:15:43.454Z,7.7
2023-05-05T03:18:43.446Z,7.7
2023-05-05T03:21:43.449Z,7.7
2023-05-05T03:24:43.463Z,7.7
2023-05-05T03:27:43.454Z,7.7
2023-05-05T03:30:43.471Z,7.7
2023-05-05T03:33:43.472Z,7.8
2023-05-05T03:36:43.468Z,7.8
2023-05-05T03:39:43.492Z,7.8
2023-05-05T03:42:43.460Z,7.8
2023-05-05T03:45:43.475Z,7.9
2023-05-05T03:48:43.479Z,7.9
2023-05-05T03:51:43.488Z,7.9
2023-05-05T03:54:43.486Z,7.9
2023-05-05T03:57:43.492Z,7.9
2023-05-05T04:00:43.477Z,7.9
2023-05-05T04:03:43.572Z,7.9
2023-05-05T04:06:43.497Z,7.9
2023-05-05T04:09:43.502Z,8
2023-05-05T04:12:43.502Z,8
2023-05-05T04:15:43.531Z,8.1
2023-05-05T04:18:43.508Z,8.1
2023-05-05T04:21:43.505Z,8.2
2023-05-05T04:24:43.545Z,8.3
2023-05-05T04:27:43.510Z,8.4
2023-05-05T04:30:43.576Z,8.5
2023-05-05T04:33:43.529Z,8.6
2023-05-05T04:36:43.580Z,8.6
2023-05-05T04:39:43.536Z,8.7
2023-05-05T04:42:43.533Z,8.7
2023-05-05T04:45:43.539Z,8.7
2023-05-05T04:48:43.537Z,8.7
2023-05-05T04:51:43.537Z,8.8
2023-05-05T04:54:43.558Z,8.9
2023-05-05T04:57:43.559Z,9
2023-05-05T05:00:43.557Z,9.1
2023-05-05T05:03:43.602Z,9.3
2023-05-05T05:06:43.562Z,9.4
2023-05-05T05:09:43.563Z,9.4
2023-05-05T05:12:43.616Z,9.5
2023-05-05T05:15:43.624Z,9.6
2023-05-05T05:18:43.571Z,9.6
2023-05-05T05:21:43.566Z,9.7
2023-05-05T05:24:43.604Z,9.8
2023-05-05T05:27:43.586Z,9.9
2023-05-05T05:30:43.597Z,10
2023-05-05T05:33:43.587Z,10
2023-05-05T05:36:43.606Z,10.1
2023-05-05T05:39:43.878Z,10.1
2023-05-05T05:42:43.604Z,10.3
2023-05-05T05:45:43.638Z,10.5
2023-05-05T05:48:43.606Z,10.9
2023-05-05T05:51:43.618Z,11.3
2023-05-05T05:54:43.641Z,11.7
2023-05-05T05:57:43.629Z,12.1
2023-05-05T06:00:43.628Z,12.4
2023-05-05T06:03:43.691Z,12.5
2023-05-05T06:06:43.644Z,12.5
2023-05-05T06:09:43.636Z,12.5
2023-05-05T06:12:43.646Z,12.4
2023-05-05T06:15:43.687Z,12.3
2023-05-05T06:18:43.648Z,12.3
2023-05-05T06:21:43.653Z,12.3
2023-05-05T06:24:43.648Z,12.3
2023-05-05T06:27:43.662Z,12.2
2023-05-05T06:30:43.692Z,12.1
2023-05-05T06:33:43.662Z,12.3
2023-05-05T06:36:43.685Z,12.9
2023-05-05T06:39:43.699Z,13.5
2023-05-05T06:42:43.671Z,14.1
2023-05-05T06:45:43.914Z,14.4
2023-05-05T06:48:43.705Z,14.5
2023-05-05T06:51:43.700Z,14.6
2023-05-05T06:54:43.721Z,14.7
2023-05-05T06:57:43.715Z,15
2023-05-05T07:00:43.790Z,15.4
2023-05-05T07:03:43.752Z,15.6
2023-05-05T07:06:43.735Z,15.8
2023-05-05T07:09:43.749Z,16
2023-05-05T07:12:43.753Z,16.2
2023-05-05T07:15:43.749Z,16.4
2023-05-05T07:18:43.751Z,16.6
2023-05-05T07:21:43.763Z,17
2023-05-05T07:24:43.759Z,17.4
2023-05-05T07:27:43.770Z,17.6
2023-05-05T07:30:43.787Z,17.7
2023-05-05T07:33:43.785Z,17.9
2023-05-05T07:36:43.815Z,18.2
2023-05-05T07:39:43.816Z,18.3
2023-05-05T07:42:43.793Z,18.4
2023-05-05T07:45:43.818Z,18.4
2023-05-05T07:48:43.813Z,18.5
2023-05-05T07:51:43.806Z,18.6
2023-05-05T07:54:43.832Z,18.9
2023-05-05T07:57:43.831Z,18.8
2023-05-05T08:00:43.830Z,18.5
2023-05-05T08:03:43.895Z,18.3
2023-05-05T08:06:43.848Z,18.4
2023-05-05T08:09:43.861Z,18.7
2023-05-05T08:12:43.895Z,19.1
2023-05-05T08:15:43.898Z,19.4
2023-05-05T08:18:43.875Z,19.4
2023-05-05T08:21:43.878Z,18.9
2023-05-05T08:24:43.897Z,18.5
2023-05-05T08:27:43.892Z,18.8
2023-05-05T08:30:43.907Z,19.4
2023-05-05T08:33:43.910Z,19.9
2023-05-05T08:36:43.912Z,20.2
2023-05-05T08:39:43.945Z,20.3
2023-05-05T08:42:43.922Z,20.4
2023-05-05T08:45:43.931Z,20.7
2023-05-05T08:48:43.936Z,20.8
2023-05-05T08:51:43.943Z,21.2
2023-05-05T08:54:43.960Z,21.3
2023-05-05T08:57:43.965Z,21.5
2023-05-05T09:00:43.983Z,21.9
2023-05-05T09:03:43.974Z,21.8
2023-05-05T09:06:43.973Z,21.5
2023-05-05T09:09:43.991Z,21.4
2023-05-05T09:12:44.012Z,21.4
2023-05-05T09:15:43.997Z,21.4
2023-05-05T09:18:44.010Z,21.7
2023-05-05T09:21:44.012Z,22.1
2023-05-05T09:24:44.029Z,22.2
2023-05-05T09:27:44.030Z,22.3
2023-05-05T09:30:44.050Z,22.2
2023-05-05T09:33:44.047Z,22.1
2023-05-05T09:36:44.063Z,22.1
2023-05-05T09:39:44.082Z,22.3
2023-05-05T09:42:44.074Z,22.6
2023-05-05T09:45:44.084Z,22.9
2023-05-05T09:48:44.097Z,23.1
2023-05-05T09:51:44.109Z,23.2
2023-05-05T09:54:44.122Z,23
2023-05-05T09:57:44.117Z,23.1
2023-05-05T10:00:44.124Z,23.5
2023-05-05T10:03:44.126Z,23.8
2023-05-05T10:06:44.146Z,23.9
2023-05-05T10:09:44.156Z,23.8
2023-05-05T10:12:44.167Z,23.9
2023-05-05T10:15:44.174Z,23.6
2023-05-05T10:18:44.172Z,23.3
2023-05-05T10:21:44.183Z,23.1
2023-05-05T10:24:44.204Z,23
2023-05-05T10:27:44.200Z,22.9
2023-05-05T10:30:44.217Z,22.9
2023-05-05T10:33:44.261Z,23.1
2023-05-05T10:36:44.233Z,23.2
2023-05-05T10:39:44.265Z,23
2023-05-05T10:42:44.259Z,22.9
2023-05-05T10:45:44.322Z,22.8
2023-05-05T10:48:44.308Z,22.6
2023-05-05T10:51:44.301Z,22.5
2023-05-05T10:54:44.303Z,22.4
2023-05-05T10:57:44.320Z,22.5
2023-05-05T11:00:44.412Z,22.7
2023-05-05T11:03:44.408Z,22.5
2023-05-05T11:06:44.328Z,22.5
2023-05-05T11:09:44.337Z,22.4
2023-05-05T11:12:44.356Z,22.4
2023-05-05T11:15:44.368Z,22.6
2023-05-05T11:18:44.425Z,22.8
2023-05-05T11:21:44.380Z,22.8
2023-05-05T11:24:44.408Z,22.7
2023-05-05T11:27:44.395Z,22.7
2023-05-05T11:30:44.437Z,22.5
2023-05-05T11:33:44.413Z,22.4
2023-05-05T11:36:44.412Z,22.3
2023-05-05T11:39:44.435Z,22.1
2023-05-05T11:42:44.431Z,22.1
2023-05-05T11:45:44.429Z,22
2023-05-05T11:48:44.435Z,21.8
2023-05-05T11:51:44.438Z,21.7
2023-05-05T11:54:44.443Z,21.6
2023-05-05T11:57:44.441Z,21.6
2023-05-05T12:00:44.444Z,21.5
2023-05-05T12:03:44.543Z,21.5
2023-05-05T12:06:44.456Z,21.5
2023-05-05T12:09:44.467Z,21.5
2023-05-05T12:12:44.496Z,21.4
2023-05-05T12:15:44.475Z,21.4
2023-05-05T12:18:44.477Z,21.4
2023-05-05T12:21:44.496Z,21.4
2023-05-05T12:24:44.497Z,21.6
2023-05-05T12:27:44.488Z,21.7
2023-05-05T12:30:44.516Z,22
2023-05-05T12:33:44.491Z,22.3
2023-05-05T12:36:44.506Z,22.4
2023-05-05T12:39:44.520Z,22.6
2023-05-05T12:42:46.263Z,22.8
2023-05-05T12:45:44.523Z,22.9
2023-05-05T12:48:47.364Z,23
2023-05-05T12:51:44.512Z,23.1
2023-05-05T12:54:44.535Z,23
2023-05-05T12:57:44.531Z,22.9
2023-05-05T13:00:44.539Z,22.8
2023-05-05T13:03:44.537Z,22.8
2023-05-05T13:06:44.538Z,22.6
2023-05-05T13:09:44.560Z,22.5
2023-05-05T13:12:44.542Z,22.4
2023-05-05T13:15:44.571Z,22.3
2023-05-05T13:18:44.557Z,22.2
2023-05-05T13:21:44.559Z,22.1
2023-05-05T13:24:51.342Z,22.1
2023-05-05T13:27:44.558Z,21.9
2023-05-05T13:30:44.579Z,21.7
2023-05-05T13:33:44.573Z,21.6
2023-05-05T13:36:44.588Z,21.5
2023-05-05T13:39:44.607Z,21.4
2023-05-05T13:42:44.585Z,21.4
2023-05-05T13:45:44.588Z,21.3
2023-05-05T13:48:45.030Z,21.2
2023-05-05T13:51:44.613Z,21.1
2023-05-05T13:54:44.625Z,21.1
2023-05-05T13:57:44.599Z,21.1
2023-05-05T14:00:44.630Z,21
2023-05-05T14:03:44.635Z,21
2023-05-05T14:06:44.644Z,21
2023-05-05T14:09:44.632Z,21
2023-05-05T14:12:44.676Z,21
2023-05-05T14:15:44.633Z,21
2023-05-05T14:18:44.642Z,20.9
2023-05-05T14:21:44.647Z,20.8
2023-05-05T14:24:44.639Z,20.7
2023-05-05T14:27:44.634Z,20.6
2023-05-05T14:30:44.644Z,20.5
2023-05-05T14:33:44.645Z,20.4
2023-05-05T14:36:44.651Z,20.4
2023-05-05T14:39:44.665Z,20.3
2023-05-05T14:42:44.667Z,20.3
2023-05-05T14:45:44.707Z,20.2
2023-05-05T14:48:44.681Z,20.1
2023-05-05T14:51:44.693Z,20.1
2023-05-05T14:54:44.715Z,20.1
2023-05-05T14:57:44.713Z,20
2023-05-05T15:00:44.703Z,20
2023-05-05T15:03:44.799Z,19.9
2023-05-05T15:06:44.734Z,19.9
2023-05-05T15:09:44.750Z,19.9
2023-05-05T15:12:44.739Z,19.9
2023-05-05T15:15:44.762Z,19.8
2023-05-05T15:18:44.754Z,19.8
2023-05-05T15:21:44.763Z,19.8
2023-05-05T15:24:44.784Z,19.8
2023-05-05T15:27:44.775Z,19.8
2023-05-05T15:30:44.766Z,19.8
2023-05-05T15:33:44.795Z,19.9
2023-05-05T15:36:44.784Z,20
2023-05-05T15:39:44.815Z,20
2023-05-05T15:42:44.810Z,20
2023-05-05T15:45:44.811Z,20.1
2023-05-05T15:48:44.820Z,20.1
2023-05-05T15:51:44.810Z,20.1
2023-05-05T15:54:44.855Z,20.1
2023-05-05T15:57:44.823Z,20.1
2023-05-05T16:00:44.851Z,20
2023-05-05T16:03:44.899Z,19.9
2023-05-05T16:06:44.834Z,19.8
2023-05-05T16:09:44.849Z,19.6
2023-05-05T16:12:44.868Z,19.5
2023-05-05T16:15:44.847Z,19.3
2023-05-05T16:18:45.106Z,19.2
2023-05-05T16:21:44.865Z,19.1
2023-05-05T16:24:44.887Z,19
2023-05-05T16:27:44.867Z,19
2023-05-05T16:30:44.884Z,18.9
2023-05-05T16:33:44.892Z,18.8
2023-05-05T16:36:44.883Z,18.7
2023-05-05T16:39:44.912Z,18.6
2023-05-05T16:42:44.889Z,18.5
2023-05-05T16:45:44.900Z,18.4
2023-05-05T16:48:44.887Z,18.3
2023-05-05T16:51:44.898Z,18.2
2023-05-05T16:54:44.905Z,18.2
2023-05-05T16:57:44.904Z,18.1
2023-05-05T17:00:44.917Z,18.1
2023-05-05T17:03:44.907Z,18
2023-05-05T17:06:44.925Z,18
2023-05-05T17:09:44.929Z,17.9
2023-05-05T17:12:44.981Z,17.8
2023-05-05T17:15:44.943Z,17.8
2023-05-05T17:18:44.948Z,17.6
2023-05-05T17:21:44.949Z,17.5
2023-05-05T17:24:44.975Z,17.3
2023-05-05T17:27:44.960Z,17.1
2023-05-05T17:30:45.000Z,16.8
2023-05-05T17:33:44.984Z,16.5
2023-05-05T17:36:44.964Z,16.2
2023-05-05T17:39:44.993Z,15.9
2023-05-05T17:42:44.968Z,15.6
2023-05-05T17:45:45.010Z,15.3
2023-05-05T17:48:45.005Z,14.9
2023-05-05T17:51:44.992Z,14.7
2023-05-05T17:54:45.013Z,14.5
2023-05-05T17:57:45.007Z,14.4
2023-05-05T18:00:45.002Z,14.3
2023-05-05T18:03:45.024Z,14.3
2023-05-05T18:06:45.008Z,14.2
2023-05-05T18:09:45.037Z,14.2
2023-05-05T18:12:45.037Z,14.1
2023-05-05T18:15:45.055Z,14.1
2023-05-05T18:18:45.127Z,14
2023-05-05T18:21:45.048Z,13.8
2023-05-05T18:24:45.065Z,13.6
2023-05-05T18:27:45.064Z,13.5
2023-05-05T18:30:45.065Z,13.4
2023-05-05T18:33:46.824Z,13.3
2023-05-05T18:36:45.055Z,13.3
2023-05-05T18:39:45.108Z,13.3
2023-05-05T18:42:45.078Z,13.3
2023-05-05T18:45:45.125Z,13.2
2023-05-05T18:48:45.089Z,13.2
2023-05-05T18:51:45.089Z,13.2
2023-05-05T18:54:45.105Z,13.2
2023-05-05T18:57:45.089Z,13.1
2023-05-05T19:00:45.126Z,13.1
2023-05-05T19:03:45.128Z,13.1
2023-05-05T19:06:45.113Z,13.1
2023-05-05T19:09:45.133Z,13.1
2023-05-05T19:12:45.154Z,13
2023-05-05T19:15:45.131Z,13
2023-05-05T19:18:45.136Z,13
2023-05-05T19:21:45.134Z,12.9
2023-05-05T19:24:45.154Z,12.9
2023-05-05T19:27:45.144Z,12.8
2023-05-05T19:30:45.156Z,12.8
2023-05-05T19:33:45.161Z,12.8
2023-05-05T19:36:45.169Z,12.8
2023-05-05T19:39:45.190Z,12.8
2023-05-05T19:42:45.173Z,12.7
2023-05-05T19:45:45.176Z,12.7
2023-05-05T19:48:45.182Z,12.7
2023-05-05T19:51:45.188Z,12.7
2023-05-05T19:54:45.208Z,12.7
2023-05-05T19:57:45.206Z,12.7
2023-05-05T20:00:45.200Z,12.6
2023-05-05T20:03:45.294Z,12.6
2023-05-05T20:06:45.233Z,12.6
2023-05-05T20:09:45.228Z,12.6
2023-05-05T20:12:45.251Z,12.6
2023-05-05T20:15:45.265Z,12.6
2023-05-05T20:18:45.239Z,12.5
2023-05-05T20:21:45.241Z,12.5
2023-05-05T20:24:45.260Z,12.5
2023-05-05T20:27:45.275Z,12.4
2023-05-05T20:30:45.252Z,12.4
2023-05-05T20:33:45.265Z,12.4
2023-05-05T20:36:45.305Z,12.3
2023-05-05T20:39:45.287Z,12.3
2023-05-05T20:42:45.276Z,12.3
2023-05-05T20:45:45.277Z,12.3
2023-05-05T20:48:45.286Z,12.3
2023-05-05T20:51:45.304Z,12.3
2023-05-05T20:54:45.309Z,12.3
2023-05-05T20:57:45.308Z,12.3
2023-05-05T21:00:45.320Z,12.3
2023-05-05T21:03:45.311Z,12.3
2023-05-05T21:06:45.308Z,12.3
2023-05-05T21:09:45.319Z,12.3
2023-05-05T21:12:45.406Z,12.2
2023-05-05T21:15:45.333Z,12.2
2023-05-05T21:18:45.330Z,12.2
2023-05-05T21:21:45.334Z,12.2
2023-05-05T21:24:45.345Z,12.2
2023-05-05T21:27:45.341Z,12.2
2023-05-05T21:30:48.313Z,12.2
2023-05-05T21:33:45.353Z,12.1
2023-05-05T21:36:45.362Z,12.1
2023-05-05T21:39:45.382Z,12.1
2023-05-05T21:42:45.366Z,12.1
2023-05-05T21:45:45.380Z,12.1
2023-05-05T21:48:45.376Z,12.1
2023-05-05T21:51:45.387Z,12.1
2023-05-05T21:54:45.400Z,12.1
2023-05-05T21:57:45.402Z,12
2023-05-05T22:00:45.400Z,12
2023-05-05T22:03:45.483Z,12
2023-05-05T22:06:45.401Z,12
2023-05-05T22:09:45.416Z,12
2023-05-05T22:12:45.437Z,12
2023-05-05T22:15:47.000Z,12
2023-05-05T22:18:45.413Z,12
2023-05-05T22:21:45.421Z,12
2023-05-05T22:24:45.433Z,12
2023-05-05T22:27:45.449Z,12
2023-05-05T22:30:45.429Z,12
2023-05-05T22:33:45.440Z,11.9
2023-05-05T22:36:45.449Z,11.9
2023-05-05T22:39:45.659Z,11.9
2023-05-05T22:42:45.466Z,11.9
2023-05-05T22:45:45.468Z,11.9
2023-05-05T22:48:45.458Z,11.9
2023-05-05T22:51:45.468Z,11.9
2023-05-05T22:54:45.481Z,11.9
2023-05-05T22:57:45.478Z,11.8
2023-05-05T23:00:45.492Z,11.8
2023-05-05T23:03:45.489Z,11.8
2023-05-05T23:06:45.504Z,11.8
2023-05-05T23:09:45.519Z,11.8
2023-05-05T23:12:45.557Z,11.7
2023-05-05T23:15:45.508Z,11.8
2023-05-05T23:18:45.514Z,11.7
2023-05-05T23:21:53.111Z,11.7
2023-05-05T23:24:45.545Z,11.7
2023-05-05T23:27:45.555Z,11.7
2023-05-05T23:30:45.616Z,11.7
2023-05-05T23:33:45.531Z,11.6
2023-05-05T23:36:45.549Z,11.6
2023-05-05T23:39:45.577Z,11.5
2023-05-05T23:42:45.552Z,11.5
2023-05-05T23:45:45.555Z,11.4
2023-05-05T23:48:45.556Z,11.4
2023-05-05T23:51:45.572Z,11.4
2023-05-05T23:54:45.597Z,11.3
2023-05-05T23:57:45.571Z,11.3
